Terminal Aerodrome Forecast
Issued by NWS Grand Forks, ND

Home | Current Version | Previous Version | Graphics & Text | Print | Product List | Glossary On
Versions: 1 2 3 4 5 6 7 8 9 10 11 12 13
370
FTUS43 KFGF 261132
TAFFAR
TAF
KFAR 261132Z 2612/2712 VRB03KT P6SM SKC
     FM261700 33007KT P6SM SKC
     FM262300 30006KT P6SM FEW200
     FM270200 22004KT P6SM SKC=

USA.gov is the U.S. government's official web portal to all federal, state and local government web resources and services.